sensor_id;sensor_type;location;lat;lon;timestamp;P1;P2;P0
12246;PMS7003;6186;52.022;4.692;2022-12-13T00:01:42;19.00;17.00;10.00
12246;PMS7003;6186;52.022;4.692;2022-12-13T00:04:09;20.50;19.50;12.00
12246;PMS7003;6186;52.022;4.692;2022-12-13T00:06:35;24.25;21.50;13.00
12246;PMS7003;6186;52.022;4.692;2022-12-13T00:09:01;19.50;19.00;12.00
12246;PMS7003;6186;52.022;4.692;2022-12-13T00:11:27;21.75;16.00;9.75
12246;PMS7003;6186;52.022;4.692;2022-12-13T00:13:52;17.33;17.33;11.33
12246;PMS7003;6186;52.022;4.692;2022-12-13T00:16:19;24.00;20.00;11.00
12246;PMS7003;6186;52.022;4.692;2022-12-13T00:18:46;19.50;19.00;11.00
12246;PMS7003;6186;52.022;4.692;2022-12-13T00:21:14;20.00;17.50;10.00
12246;PMS7003;6186;52.022;4.692;2022-12-13T00:23:41;22.75;20.00;10.00
12246;PMS7003;6186;52.022;4.692;2022-12-13T00:26:08;19.00;18.33;10.00
12246;PMS7003;6186;52.022;4.692;2022-12-13T00:28:35;18.75;17.50;11.50
12246;PMS7003;6186;52.022;4.692;2022-12-13T00:31:02;18.00;18.00;10.00
12246;PMS7003;6186;52.022;4.692;2022-12-13T00:33:27;20.50;19.00;10.00
12246;PMS7003;6186;52.022;4.692;2022-12-13T00:35:54;16.75;15.00;8.00
12246;PMS7003;6186;52.022;4.692;2022-12-13T00:38:19;18.75;16.25;9.50
12246;PMS7003;6186;52.022;4.692;2022-12-13T00:40:45;23.33;19.67;9.33
12246;PMS7003;6186;52.022;4.692;2022-12-13T00:43:11;18.33;16.67;10.00
12246;PMS7003;6186;52.022;4.692;2022-12-13T00:45:36;21.67;19.67;12.00
12246;PMS7003;6186;52.022;4.692;2022-12-13T00:48:02;21.00;18.00;9.00
12246;PMS7003;6186;52.022;4.692;2022-12-13T00:50:28;20.00;17.75;10.50
12246;PMS7003;6186;52.022;4.692;2022-12-13T00:52:53;18.00;18.00;10.00
12246;PMS7003;6186;52.022;4.692;2022-12-13T00:55:19;18.00;15.67;9.67
12246;PMS7003;6186;52.022;4.692;2022-12-13T00:57:44;18.67;16.00;9.00
12246;PMS7003;6186;52.022;4.692;2022-12-13T01:00:09;22.00;19.67;10.00
12246;PMS7003;6186;52.022;4.692;2022-12-13T01:02:36;18.50;16.00;10.00
12246;PMS7003;6186;52.022;4.692;2022-12-13T01:05:01;18.33;18.00;10.00
12246;PMS7003;6186;52.022;4.692;2022-12-13T01:07:26;19.67;18.00;9.00
12246;PMS7003;6186;52.022;4.692;2022-12-13T01:09:52;21.33;17.33;9.33
12246;PMS7003;6186;52.022;4.692;2022-12-13T01:12:17;23.00;18.67;12.33
12246;PMS7003;6186;52.022;4.692;2022-12-13T01:14:43;20.33;18.33;10.00
12246;PMS7003;6186;52.022;4.692;2022-12-13T01:17:08;24.33;18.67;10.00
12246;PMS7003;6186;52.022;4.692;2022-12-13T01:19:34;20.67;19.00;10.00
12246;PMS7003;6186;52.022;4.692;2022-12-13T01:22:00;23.50;19.00;11.00
12246;PMS7003;6186;52.022;4.692;2022-12-13T01:24:29;21.25;18.25;9.00
12246;PMS7003;6186;52.022;4.692;2022-12-13T01:26:55;19.50;16.00;9.75
12246;PMS7003;6186;52.022;4.692;2022-12-13T01:29:21;21.75;19.50;10.50
12246;PMS7003;6186;52.022;4.692;2022-12-13T01:31:48;17.50;17.00;9.75
12246;PMS7003;6186;52.022;4.692;2022-12-13T01:34:15;15.67;15.00;9.00
12246;PMS7003;6186;52.022;4.692;2022-12-13T01:36:42;18.00;15.75;10.00
12246;PMS7003;6186;52.022;4.692;2022-12-13T01:39:11;19.00;16.00;9.00
12246;PMS7003;6186;52.022;4.692;2022-12-13T01:41:38;18.75;15.25;9.25
12246;PMS7003;6186;52.022;4.692;2022-12-13T01:44:04;18.00;15.00;9.00
12246;PMS7003;6186;52.022;4.692;2022-12-13T01:46:50;20.75;18.75;12.00
12246;PMS7003;6186;52.022;4.692;2022-12-13T01:49:16;18.33;16.67;9.00
12246;PMS7003;6186;52.022;4.692;2022-12-13T01:51:47;21.00;17.00;9.50
12246;PMS7003;6186;52.022;4.692;2022-12-13T01:54:18;15.50;15.00;9.00
12246;PMS7003;6186;52.022;4.692;2022-12-13T01:56:51;20.50;17.50;12.00
12246;PMS7003;6186;52.022;4.692;2022-12-13T01:59:19;21.00;18.50;11.75
12246;PMS7003;6186;52.022;4.692;2022-12-13T02:01:46;20.00;18.00;10.00
12246;PMS7003;6186;52.022;4.692;2022-12-13T02:04:16;19.00;18.25;10.00
12246;PMS7003;6186;52.022;4.692;2022-12-13T02:06:47;17.50;17.50;9.75
12246;PMS7003;6186;52.022;4.692;2022-12-13T02:09:13;20.60;18.60;10.40
12246;PMS7003;6186;52.022;4.692;2022-12-13T02:11:40;19.50;16.50;9.25
12246;PMS7003;6186;52.022;4.692;2022-12-13T02:14:07;20.00;18.00;9.00
12246;PMS7003;6186;52.022;4.692;2022-12-13T02:24:59;22.50;21.00;10.00
12246;PMS7003;6186;52.022;4.692;2022-12-13T02:36:03;18.25;17.50;9.25
12246;PMS7003;6186;52.022;4.692;2022-12-13T02:41:14;20.75;18.25;11.75
12246;PMS7003;6186;52.022;4.692;2022-12-13T02:43:47;18.25;18.25;10.50
12246;PMS7003;6186;52.022;4.692;2022-12-13T02:46:17;17.25;16.50;9.25
12246;PMS7003;6186;52.022;4.692;2022-12-13T02:48:46;21.00;16.50;10.25
12246;PMS7003;6186;52.022;4.692;2022-12-13T02:51:16;23.50;19.50;11.00
12246;PMS7003;6186;52.022;4.692;2022-12-13T02:53:42;17.00;15.50;9.25
12246;PMS7003;6186;52.022;4.692;2022-12-13T02:56:10;20.25;17.50;10.00
12246;PMS7003;6186;52.022;4.692;2022-12-13T02:58:38;24.75;21.50;10.00
12246;PMS7003;6186;52.022;4.692;2022-12-13T03:01:18;17.75;17.75;9.25
12246;PMS7003;6186;52.022;4.692;2022-12-13T03:03:55;19.50;19.50;9.00
12246;PMS7003;6186;52.022;4.692;2022-12-13T03:06:45;22.00;18.25;9.25
12246;PMS7003;6186;52.022;4.692;2022-12-13T03:09:39;21.75;19.50;11.00
12246;PMS7003;6186;52.022;4.692;2022-12-13T03:18:21;18.00;16.50;9.75
12246;PMS7003;6186;52.022;4.692;2022-12-13T03:21:00;20.75;16.50;9.50
12246;PMS7003;6186;52.022;4.692;2022-12-13T03:23:27;19.00;16.00;9.00
12246;PMS7003;6186;52.022;4.692;2022-12-13T03:25:54;19.00;18.00;10.00
12246;PMS7003;6186;52.022;4.692;2022-12-13T03:28:22;19.25;15.75;10.00
12246;PMS7003;6186;52.022;4.692;2022-12-13T03:30:48;21.00;18.00;10.67
12246;PMS7003;6186;52.022;4.692;2022-12-13T03:33:13;19.33;18.33;9.33
12246;PMS7003;6186;52.022;4.692;2022-12-13T03:35:39;21.75;19.75;10.00
12246;PMS7003;6186;52.022;4.692;2022-12-13T03:38:06;19.25;15.25;9.00
12246;PMS7003;6186;52.022;4.692;2022-12-13T03:40:32;22.75;18.25;9.25
12246;PMS7003;6186;52.022;4.692;2022-12-13T03:42:58;20.00;18.00;10.00
12246;PMS7003;6186;52.022;4.692;2022-12-13T03:45:24;18.60;17.20;10.00
12246;PMS7003;6186;52.022;4.692;2022-12-13T03:47:49;18.67;15.67;9.67
12246;PMS7003;6186;52.022;4.692;2022-12-13T03:50:15;22.33;16.33;9.00
12246;PMS7003;6186;52.022;4.692;2022-12-13T03:52:40;19.67;17.33;9.00
12246;PMS7003;6186;52.022;4.692;2022-12-13T03:55:06;17.33;16.00;9.33
12246;PMS7003;6186;52.022;4.692;2022-12-13T03:57:31;19.67;16.00;9.00
12246;PMS7003;6186;52.022;4.692;2022-12-13T03:59:57;19.00;18.00;9.00
12246;PMS7003;6186;52.022;4.692;2022-12-13T04:02:22;22.00;18.00;9.25
12246;PMS7003;6186;52.022;4.692;2022-12-13T04:04:47;16.00;16.00;7.00
12246;PMS7003;6186;52.022;4.692;2022-12-13T04:07:13;21.67;18.33;11.33
12246;PMS7003;6186;52.022;4.692;2022-12-13T04:09:38;19.67;18.00;10.00
12246;PMS7003;6186;52.022;4.692;2022-12-13T04:12:03;19.00;16.67;10.00
12246;PMS7003;6186;52.022;4.692;2022-12-13T04:14:47;21.00;19.75;9.00
12246;PMS7003;6186;52.022;4.692;2022-12-13T04:17:13;20.00;17.33;8.33
12246;PMS7003;6186;52.022;4.692;2022-12-13T04:19:38;18.00;16.00;10.00
12246;PMS7003;6186;52.022;4.692;2022-12-13T04:22:04;23.33;18.00;9.33
12246;PMS7003;6186;52.022;4.692;2022-12-13T04:24:29;21.33;18.00;9.33
12246;PMS7003;6186;52.022;4.692;2022-12-13T04:26:54;19.00;17.67;7.67
12246;PMS7003;6186;52.022;4.692;2022-12-13T04:29:20;21.00;16.00;9.00
12246;PMS7003;6186;52.022;4.692;2022-12-13T04:31:45;17.33;15.00;9.00
12246;PMS7003;6186;52.022;4.692;2022-12-13T04:34:10;16.67;14.33;9.00
12246;PMS7003;6186;52.022;4.692;2022-12-13T04:36:36;21.75;17.75;10.25
12246;PMS7003;6186;52.022;4.692;2022-12-13T04:39:02;19.67;16.00;9.00
12246;PMS7003;6186;52.022;4.692;2022-12-13T04:41:28;16.50;15.00;9.00
12246;PMS7003;6186;52.022;4.692;2022-12-13T04:43:59;18.25;15.75;9.00
12246;PMS7003;6186;52.022;4.692;2022-12-13T04:46:24;20.00;15.75;8.50
12246;PMS7003;6186;52.022;4.692;2022-12-13T04:48:49;14.67;14.67;9.00
12246;PMS7003;6186;52.022;4.692;2022-12-13T04:51:15;20.00;17.00;10.00
12246;PMS7003;6186;52.022;4.692;2022-12-13T04:53:40;18.25;17.00;9.00
12246;PMS7003;6186;52.022;4.692;2022-12-13T04:56:05;17.33;15.67;8.33
12246;PMS7003;6186;52.022;4.692;2022-12-13T04:58:31;15.33;15.00;9.33
12246;PMS7003;6186;52.022;4.692;2022-12-13T05:00:56;19.00;18.00;9.00
12246;PMS7003;6186;52.022;4.692;2022-12-13T05:03:22;18.00;16.00;9.00
12246;PMS7003;6186;52.022;4.692;2022-12-13T05:05:47;18.00;16.50;10.00
12246;PMS7003;6186;52.022;4.692;2022-12-13T05:08:13;16.00;15.00;9.00
12246;PMS7003;6186;52.022;4.692;2022-12-13T05:10:38;21.00;18.00;9.33
12246;PMS7003;6186;52.022;4.692;2022-12-13T05:13:04;18.00;14.50;9.00
12246;PMS7003;6186;52.022;4.692;2022-12-13T05:15:30;21.20;18.80;10.00
12246;PMS7003;6186;52.022;4.692;2022-12-13T05:17:59;21.00;18.00;10.00
12246;PMS7003;6186;52.022;4.692;2022-12-13T05:20:26;18.75;16.50;9.25
12246;PMS7003;6186;52.022;4.692;2022-12-13T05:22:51;17.33;16.00;10.00
12246;PMS7003;6186;52.022;4.692;2022-12-13T05:25:19;19.00;16.00;9.00
12246;PMS7003;6186;52.022;4.692;2022-12-13T05:27:45;20.33;18.00;9.00
12246;PMS7003;6186;52.022;4.692;2022-12-13T05:30:10;21.25;18.25;10.00
12246;PMS7003;6186;52.022;4.692;2022-12-13T05:32:36;18.00;16.00;10.00
12246;PMS7003;6186;52.022;4.692;2022-12-13T05:35:05;17.60;15.20;9.00
12246;PMS7003;6186;52.022;4.692;2022-12-13T05:37:30;21.00;17.20;9.00
12246;PMS7003;6186;52.022;4.692;2022-12-13T05:39:56;21.33;18.00;7.67
12246;PMS7003;6186;52.022;4.692;2022-12-13T05:42:21;23.00;19.00;9.00
12246;PMS7003;6186;52.022;4.692;2022-12-13T05:44:47;15.33;14.00;8.33
12246;PMS7003;6186;52.022;4.692;2022-12-13T05:47:12;16.00;16.00;10.00
12246;PMS7003;6186;52.022;4.692;2022-12-13T05:49:37;16.67;15.00;7.67
12246;PMS7003;6186;52.022;4.692;2022-12-13T05:52:02;20.00;18.00;9.75
12246;PMS7003;6186;52.022;4.692;2022-12-13T05:54:28;15.00;14.33;8.33
12246;PMS7003;6186;52.022;4.692;2022-12-13T05:56:53;17.75;15.50;7.50
12246;PMS7003;6186;52.022;4.692;2022-12-13T05:59:19;18.00;14.50;9.00
12246;PMS7003;6186;52.022;4.692;2022-12-13T06:01:44;22.00;18.25;9.50
12246;PMS7003;6186;52.022;4.692;2022-12-13T06:04:10;21.75;19.50;11.50
12246;PMS7003;6186;52.022;4.692;2022-12-13T06:06:36;16.80;15.80;9.80
12246;PMS7003;6186;52.022;4.692;2022-12-13T06:09:01;17.67;15.67;7.00
12246;PMS7003;6186;52.022;4.692;2022-12-13T06:11:27;15.00;13.50;7.50
12246;PMS7003;6186;52.022;4.692;2022-12-13T06:13:53;19.50;18.00;10.00
12246;PMS7003;6186;52.022;4.692;2022-12-13T06:16:18;24.25;20.50;10.00
12246;PMS7003;6186;52.022;4.692;2022-12-13T06:18:43;19.33;15.67;7.67
12246;PMS7003;6186;52.022;4.692;2022-12-13T06:21:08;16.50;15.25;9.00
12246;PMS7003;6186;52.022;4.692;2022-12-13T06:23:35;20.60;15.40;9.00
12246;PMS7003;6186;52.022;4.692;2022-12-13T06:26:01;24.75;17.50;9.00
12246;PMS7003;6186;52.022;4.692;2022-12-13T06:28:28;19.00;18.40;10.00
12246;PMS7003;6186;52.022;4.692;2022-12-13T06:30:53;18.67;15.33;7.00
12246;PMS7003;6186;52.022;4.692;2022-12-13T06:33:18;20.00;18.25;9.50
12246;PMS7003;6186;52.022;4.692;2022-12-13T06:35:44;19.40;17.20;9.60
12246;PMS7003;6186;52.022;4.692;2022-12-13T06:38:10;19.00;18.33;9.67
12246;PMS7003;6186;52.022;4.692;2022-12-13T06:40:36;18.40;17.20;10.00
12246;PMS7003;6186;52.022;4.692;2022-12-13T06:43:01;23.50;20.50;9.75
12246;PMS7003;6186;52.022;4.692;2022-12-13T06:45:26;19.00;18.00;10.00
12246;PMS7003;6186;52.022;4.692;2022-12-13T06:47:52;22.00;16.00;9.00
12246;PMS7003;6186;52.022;4.692;2022-12-13T06:50:17;20.50;18.75;10.00
12246;PMS7003;6186;52.022;4.692;2022-12-13T06:52:44;21.50;19.00;9.25
12246;PMS7003;6186;52.022;4.692;2022-12-13T06:55:10;22.40;19.00;10.00
12246;PMS7003;6186;52.022;4.692;2022-12-13T06:57:36;17.50;16.00;9.50
12246;PMS7003;6186;52.022;4.692;2022-12-13T07:00:01;25.25;20.00;10.25
12246;PMS7003;6186;52.022;4.692;2022-12-13T07:02:29;19.75;18.25;10.25
12246;PMS7003;6186;52.022;4.692;2022-12-13T07:04:54;18.50;15.00;9.00
12246;PMS7003;6186;52.022;4.692;2022-12-13T07:07:20;19.60;15.80;7.80
12246;PMS7003;6186;52.022;4.692;2022-12-13T07:09:45;18.75;18.25;9.25
12246;PMS7003;6186;52.022;4.692;2022-12-13T07:12:11;16.50;15.50;9.00
12246;PMS7003;6186;52.022;4.692;2022-12-13T07:14:36;20.50;18.25;9.75
12246;PMS7003;6186;52.022;4.692;2022-12-13T07:17:01;19.00;18.00;10.00
12246;PMS7003;6186;52.022;4.692;2022-12-13T07:19:27;19.00;18.25;10.50
12246;PMS7003;6186;52.022;4.692;2022-12-13T07:21:52;19.00;17.00;8.50
12246;PMS7003;6186;52.022;4.692;2022-12-13T07:24:17;21.00;16.00;9.67
12246;PMS7003;6186;52.022;4.692;2022-12-13T07:26:43;19.50;15.75;9.50
12246;PMS7003;6186;52.022;4.692;2022-12-13T07:29:08;23.50;19.00;9.50
12246;PMS7003;6186;52.022;4.692;2022-12-13T07:31:34;20.67;19.33;9.67
12246;PMS7003;6186;52.022;4.692;2022-12-13T07:34:01;21.20;18.20;10.40
12246;PMS7003;6186;52.022;4.692;2022-12-13T07:36:26;26.25;19.50;11.00
12246;PMS7003;6186;52.022;4.692;2022-12-13T07:38:55;24.75;21.25;11.50
12246;PMS7003;6186;52.022;4.692;2022-12-13T07:41:22;26.20;21.40;10.80
12246;PMS7003;6186;52.022;4.692;2022-12-13T07:43:48;19.60;19.20;10.40
12246;PMS7003;6186;52.022;4.692;2022-12-13T07:46:13;25.25;18.75;12.00
12246;PMS7003;6186;52.022;4.692;2022-12-13T07:48:39;19.00;19.00;10.00
12246;PMS7003;6186;52.022;4.692;2022-12-13T07:51:06;24.75;21.25;11.00
12246;PMS7003;6186;52.022;4.692;2022-12-13T07:53:34;24.20;19.80;9.80
12246;PMS7003;6186;52.022;4.692;2022-12-13T07:56:01;22.50;19.00;11.50
12246;PMS7003;6186;52.022;4.692;2022-12-13T07:58:30;25.00;19.40;10.00
12246;PMS7003;6186;52.022;4.692;2022-12-13T08:01:01;21.40;19.20;11.60
12246;PMS7003;6186;52.022;4.692;2022-12-13T08:03:28;20.80;19.00;10.40
12246;PMS7003;6186;52.022;4.692;2022-12-13T08:06:10;20.00;18.25;9.50
12246;PMS7003;6186;52.022;4.692;2022-12-13T08:08:36;27.80;21.80;12.00
12246;PMS7003;6186;52.022;4.692;2022-12-13T08:11:03;27.60;21.20;12.00
12246;PMS7003;6186;52.022;4.692;2022-12-13T08:13:37;18.00;16.00;9.00
12246;PMS7003;6186;52.022;4.692;2022-12-13T08:16:06;23.20;18.00;9.60
12246;PMS7003;6186;52.022;4.692;2022-12-13T08:18:34;24.00;22.00;10.80
12246;PMS7003;6186;52.022;4.692;2022-12-13T08:20:59;25.50;21.25;10.00
12246;PMS7003;6186;52.022;4.692;2022-12-13T08:23:26;22.60;20.60;10.00
12246;PMS7003;6186;52.022;4.692;2022-12-13T08:25:54;22.20;21.20;10.40
12246;PMS7003;6186;52.022;4.692;2022-12-13T08:28:20;24.50;21.00;11.00
12246;PMS7003;6186;52.022;4.692;2022-12-13T08:30:46;20.20;18.20;12.00
12246;PMS7003;6186;52.022;4.692;2022-12-13T08:33:12;23.20;20.80;12.00
12246;PMS7003;6186;52.022;4.692;2022-12-13T08:35:38;23.00;19.75;11.00
12246;PMS7003;6186;52.022;4.692;2022-12-13T08:38:03;17.75;17.50;9.75
12246;PMS7003;6186;52.022;4.692;2022-12-13T08:40:29;22.00;19.50;10.50
12246;PMS7003;6186;52.022;4.692;2022-12-13T08:42:54;19.50;18.00;9.00
12246;PMS7003;6186;52.022;4.692;2022-12-13T08:45:20;20.00;18.00;12.00
12246;PMS7003;6186;52.022;4.692;2022-12-13T08:47:47;17.60;16.60;9.60
12246;PMS7003;6186;52.022;4.692;2022-12-13T08:50:13;21.25;17.00;9.50
12246;PMS7003;6186;52.022;4.692;2022-12-13T08:52:38;18.75;18.25;11.00
12246;PMS7003;6186;52.022;4.692;2022-12-13T08:55:03;25.25;23.50;11.00
12246;PMS7003;6186;52.022;4.692;2022-12-13T08:57:29;23.67;20.33;10.00
12246;PMS7003;6186;52.022;4.692;2022-12-13T08:59:54;23.50;18.75;12.00
12246;PMS7003;6186;52.022;4.692;2022-12-13T09:02:20;23.75;20.00;11.00
12246;PMS7003;6186;52.022;4.692;2022-12-13T09:04:45;20.25;18.50;12.00
12246;PMS7003;6186;52.022;4.692;2022-12-13T09:07:10;25.50;19.50;11.75
12246;PMS7003;6186;52.022;4.692;2022-12-13T09:09:36;24.25;21.00;12.00
12246;PMS7003;6186;52.022;4.692;2022-12-13T09:12:02;25.50;21.25;10.00
12246;PMS7003;6186;52.022;4.692;2022-12-13T09:14:28;29.33;24.67;12.00
12246;PMS7003;6186;52.022;4.692;2022-12-13T09:16:53;28.75;22.25;12.75
12246;PMS7003;6186;52.022;4.692;2022-12-13T09:19:18;22.00;20.50;11.00
12246;PMS7003;6186;52.022;4.692;2022-12-13T09:21:44;25.00;21.67;12.00
12246;PMS7003;6186;52.022;4.692;2022-12-13T09:24:09;23.67;20.67;12.00
12246;PMS7003;6186;52.022;4.692;2022-12-13T09:26:34;26.00;20.33;12.00
12246;PMS7003;6186;52.022;4.692;2022-12-13T09:29:00;21.67;19.00;12.00
12246;PMS7003;6186;52.022;4.692;2022-12-13T09:31:25;25.00;21.33;12.33
12246;PMS7003;6186;52.022;4.692;2022-12-13T09:33:50;28.33;21.67;14.33
12246;PMS7003;6186;52.022;4.692;2022-12-13T09:36:17;26.75;23.50;14.50
12246;PMS7003;6186;52.022;4.692;2022-12-13T09:38:44;22.25;18.50;11.00
12246;PMS7003;6186;52.022;4.692;2022-12-13T09:41:18;27.60;24.20;13.40
12246;PMS7003;6186;52.022;4.692;2022-12-13T09:43:48;27.25;20.75;12.00
12246;PMS7003;6186;52.022;4.692;2022-12-13T09:46:24;25.00;23.00;13.00
12246;PMS7003;6186;52.022;4.692;2022-12-13T09:48:54;28.00;21.50;12.75
12246;PMS7003;6186;52.022;4.692;2022-12-13T09:51:21;24.50;20.50;12.00
12246;PMS7003;6186;52.022;4.692;2022-12-13T09:53:49;27.00;23.00;10.50
12246;PMS7003;6186;52.022;4.692;2022-12-13T09:56:20;27.50;22.00;13.00
12246;PMS7003;6186;52.022;4.692;2022-12-13T09:58:48;22.50;22.00;12.75
12246;PMS7003;6186;52.022;4.692;2022-12-13T10:01:15;24.00;22.00;14.50
12246;PMS7003;6186;52.022;4.692;2022-12-13T10:03:42;27.33;22.00;15.00
12246;PMS7003;6186;52.022;4.692;2022-12-13T10:06:16;29.00;24.50;14.00
12246;PMS7003;6186;52.022;4.692;2022-12-13T10:08:44;28.00;25.00;14.00
12246;PMS7003;6186;52.022;4.692;2022-12-13T10:11:13;28.00;24.50;13.50
12246;PMS7003;6186;52.022;4.692;2022-12-13T10:13:41;28.00;24.00;13.50
12246;PMS7003;6186;52.022;4.692;2022-12-13T10:18:54;26.50;23.25;13.50
12246;PMS7003;6186;52.022;4.692;2022-12-13T10:21:24;32.75;30.75;18.00
12246;PMS7003;6186;52.022;4.692;2022-12-13T10:24:11;29.25;26.25;14.25
12246;PMS7003;6186;52.022;4.692;2022-12-13T10:26:41;32.00;29.00;16.25
12246;PMS7003;6186;52.022;4.692;2022-12-13T10:29:07;37.33;29.00;16.67
12246;PMS7003;6186;52.022;4.692;2022-12-13T10:31:37;29.00;27.00;16.00
12246;PMS7003;6186;52.022;4.692;2022-12-13T10:36:53;32.50;25.00;13.00
12246;PMS7003;6186;52.022;4.692;2022-12-13T10:42:05;29.25;26.75;15.00
12246;PMS7003;6186;52.022;4.692;2022-12-13T10:44:37;28.50;24.00;14.00
12246;PMS7003;6186;52.022;4.692;2022-12-13T10:49:48;29.25;26.75;16.50
12246;PMS7003;6186;52.022;4.692;2022-12-13T10:52:23;31.50;30.75;16.00
12246;PMS7003;6186;52.022;4.692;2022-12-13T10:54:50;36.25;27.50;16.00
12246;PMS7003;6186;52.022;4.692;2022-12-13T10:57:16;34.75;31.00;16.50
12246;PMS7003;6186;52.022;4.692;2022-12-13T10:59:43;31.50;26.75;14.50
12246;PMS7003;6186;52.022;4.692;2022-12-13T11:02:26;32.00;27.75;15.50
12246;PMS7003;6186;52.022;4.692;2022-12-13T11:04:52;35.50;27.00;16.00
12246;PMS7003;6186;52.022;4.692;2022-12-13T11:07:28;30.00;28.00;16.50
12246;PMS7003;6186;52.022;4.692;2022-12-13T11:09:56;28.00;26.50;17.00
12246;PMS7003;6186;52.022;4.692;2022-12-13T11:12:23;32.75;28.75;15.50
12246;PMS7003;6186;52.022;4.692;2022-12-13T11:17:23;32.00;27.00;15.25
12246;PMS7003;6186;52.022;4.692;2022-12-13T11:19:51;30.50;27.75;16.50
12246;PMS7003;6186;52.022;4.692;2022-12-13T11:22:25;34.75;29.50;18.00
12246;PMS7003;6186;52.022;4.692;2022-12-13T11:24:58;28.25;26.50;14.50
12246;PMS7003;6186;52.022;4.692;2022-12-13T11:27:53;30.75;27.25;14.50
12246;PMS7003;6186;52.022;4.692;2022-12-13T11:33:12;30.25;27.00;15.50
12246;PMS7003;6186;52.022;4.692;2022-12-13T11:47:30;33.25;27.25;15.00
12246;PMS7003;6186;52.022;4.692;2022-12-13T11:50:02;35.00;29.75;17.00
12246;PMS7003;6186;52.022;4.692;2022-12-13T11:52:43;35.50;31.25;17.50
12246;PMS7003;6186;52.022;4.692;2022-12-13T11:55:16;32.75;26.75;17.00
12246;PMS7003;6186;52.022;4.692;2022-12-13T11:58:02;37.00;30.75;17.00
12246;PMS7003;6186;52.022;4.692;2022-12-13T12:00:32;30.50;27.50;17.00
12246;PMS7003;6186;52.022;4.692;2022-12-13T12:03:19;33.50;27.75;16.50
12246;PMS7003;6186;52.022;4.692;2022-12-13T12:05:52;35.00;29.00;18.00
12246;PMS7003;6186;52.022;4.692;2022-12-13T12:08:41;36.25;31.25;18.50
12246;PMS7003;6186;52.022;4.692;2022-12-13T12:13:59;33.50;31.25;18.25
12246;PMS7003;6186;52.022;4.692;2022-12-13T12:16:40;34.00;27.50;15.00
12246;PMS7003;6186;52.022;4.692;2022-12-13T12:19:20;29.00;25.50;15.00
12246;PMS7003;6186;52.022;4.692;2022-12-13T12:25:02;35.00;29.50;17.00
12246;PMS7003;6186;52.022;4.692;2022-12-13T12:28:10;38.50;34.00;21.00
12246;PMS7003;6186;52.022;4.692;2022-12-13T12:33:55;37.00;30.50;17.75
12246;PMS7003;6186;52.022;4.692;2022-12-13T12:44:44;48.00;39.25;25.00
12246;PMS7003;6186;52.022;4.692;2022-12-13T12:50:13;47.00;37.00;21.50
12246;PMS7003;6186;52.022;4.692;2022-12-13T12:52:50;37.00;34.00;21.00
12246;PMS7003;6186;52.022;4.692;2022-12-13T12:58:12;36.50;32.50;17.00
12246;PMS7003;6186;52.022;4.692;2022-12-13T13:03:25;31.50;25.75;17.50
12246;PMS7003;6186;52.022;4.692;2022-12-13T13:05:58;32.50;28.00;17.00
12246;PMS7003;6186;52.022;4.692;2022-12-13T13:08:32;30.50;28.00;16.00
12246;PMS7003;6186;52.022;4.692;2022-12-13T13:11:07;29.00;26.00;16.00
12246;PMS7003;6186;52.022;4.692;2022-12-13T13:15:59;34.33;27.67;16.00
12246;PMS7003;6186;52.022;4.692;2022-12-13T13:18:45;29.75;27.25;16.50
12246;PMS7003;6186;52.022;4.692;2022-12-13T13:26:50;30.75;27.75;15.00
12246;PMS7003;6186;52.022;4.692;2022-12-13T13:34:25;29.25;24.50;14.25
12246;PMS7003;6186;52.022;4.692;2022-12-13T13:36:53;29.50;24.25;14.00
12246;PMS7003;6186;52.022;4.692;2022-12-13T13:41:53;30.25;27.50;15.50
12246;PMS7003;6186;52.022;4.692;2022-12-13T13:47:14;29.25;24.50;14.75
12246;PMS7003;6186;52.022;4.692;2022-12-13T14:09:59;26.00;20.00;13.00
12246;PMS7003;6186;52.022;4.692;2022-12-13T14:15:27;26.25;22.25;12.50
12246;PMS7003;6186;52.022;4.692;2022-12-13T14:21:12;27.50;24.50;15.50
12246;PMS7003;6186;52.022;4.692;2022-12-13T14:29:36;29.75;21.75;11.75
12246;PMS7003;6186;52.022;4.692;2022-12-13T14:32:09;31.25;24.25;14.00
12246;PMS7003;6186;52.022;4.692;2022-12-13T14:34:46;29.25;25.50;13.50
12246;PMS7003;6186;52.022;4.692;2022-12-13T14:37:31;23.67;20.67;12.33
12246;PMS7003;6186;52.022;4.692;2022-12-13T14:40:00;28.25;24.00;13.50
12246;PMS7003;6186;52.022;4.692;2022-12-13T14:42:46;32.00;27.50;15.50
12246;PMS7003;6186;52.022;4.692;2022-12-13T14:45:21;34.25;26.50;14.00
12246;PMS7003;6186;52.022;4.692;2022-12-13T14:47:53;30.50;27.00;14.25
12246;PMS7003;6186;52.022;4.692;2022-12-13T14:50:20;29.50;26.00;14.00
12246;PMS7003;6186;52.022;4.692;2022-12-13T14:52:48;31.00;26.75;14.25
12246;PMS7003;6186;52.022;4.692;2022-12-13T14:55:28;32.00;25.75;13.75
12246;PMS7003;6186;52.022;4.692;2022-12-13T14:57:56;23.50;20.50;13.00
12246;PMS7003;6186;52.022;4.692;2022-12-13T15:02:54;25.25;23.00;14.00
12246;PMS7003;6186;52.022;4.692;2022-12-13T15:05:25;28.00;24.25;14.00
12246;PMS7003;6186;52.022;4.692;2022-12-13T15:07:53;30.25;26.75;16.00
12246;PMS7003;6186;52.022;4.692;2022-12-13T15:10:20;31.00;26.00;15.50
12246;PMS7003;6186;52.022;4.692;2022-12-13T15:12:50;26.75;22.50;13.00
12246;PMS7003;6186;52.022;4.692;2022-12-13T15:20:51;24.25;23.00;13.00
12246;PMS7003;6186;52.022;4.692;2022-12-13T15:23:31;28.25;23.75;12.00
12246;PMS7003;6186;52.022;4.692;2022-12-13T15:26:00;31.50;24.75;13.25
12246;PMS7003;6186;52.022;4.692;2022-12-13T15:28:27;26.00;25.00;13.25
12246;PMS7003;6186;52.022;4.692;2022-12-13T15:30:57;29.50;25.75;16.00
12246;PMS7003;6186;52.022;4.692;2022-12-13T15:33:25;31.25;28.00;16.50
12246;PMS7003;6186;52.022;4.692;2022-12-13T15:36:02;27.25;25.00;14.00
12246;PMS7003;6186;52.022;4.692;2022-12-13T15:38:38;29.00;25.25;13.50
12246;PMS7003;6186;52.022;4.692;2022-12-13T15:41:16;24.50;22.50;13.75
12246;PMS7003;6186;52.022;4.692;2022-12-13T15:43:44;39.25;27.00;14.50
12246;PMS7003;6186;52.022;4.692;2022-12-13T15:46:25;35.00;27.50;15.50
12246;PMS7003;6186;52.022;4.692;2022-12-13T15:48:53;30.25;27.00;16.00
12246;PMS7003;6186;52.022;4.692;2022-12-13T15:51:21;27.25;23.50;15.00
12246;PMS7003;6186;52.022;4.692;2022-12-13T15:59:00;29.50;27.75;15.50
12246;PMS7003;6186;52.022;4.692;2022-12-13T16:01:28;27.00;25.00;15.00
12246;PMS7003;6186;52.022;4.692;2022-12-13T16:03:59;27.75;24.25;14.00
12246;PMS7003;6186;52.022;4.692;2022-12-13T16:06:27;27.75;24.75;15.00
12246;PMS7003;6186;52.022;4.692;2022-12-13T16:08:55;30.25;26.50;17.50
12246;PMS7003;6186;52.022;4.692;2022-12-13T16:11:25;33.50;30.00;17.50
12246;PMS7003;6186;52.022;4.692;2022-12-13T16:13:53;34.75;30.25;16.00
12246;PMS7003;6186;52.022;4.692;2022-12-13T16:18:55;32.50;26.50;13.50
12246;PMS7003;6186;52.022;4.692;2022-12-13T16:21:22;28.50;24.75;14.00
12246;PMS7003;6186;52.022;4.692;2022-12-13T16:23:48;33.00;29.00;15.75
12246;PMS7003;6186;52.022;4.692;2022-12-13T16:26:14;31.00;25.33;14.33
12246;PMS7003;6186;52.022;4.692;2022-12-13T16:28:46;34.00;25.50;13.50
12246;PMS7003;6186;52.022;4.692;2022-12-13T16:31:21;34.00;27.67;15.33
12246;PMS7003;6186;52.022;4.692;2022-12-13T16:33:48;31.50;26.50;15.00
12246;PMS7003;6186;52.022;4.692;2022-12-13T16:36:14;36.00;30.33;16.67